createdAt,value
2023-04-09T00:00:52.723Z,18.27
2023-04-09T00:03:22.772Z,18.27
2023-04-09T00:05:50.895Z,18.27
2023-04-09T00:08:18.761Z,18.25
2023-04-09T00:10:46.607Z,18.21
2023-04-09T00:13:17.008Z,18.19
2023-04-09T00:15:48.240Z,18.19
2023-04-09T00:18:16.666Z,18.21
2023-04-09T00:20:44.521Z,18.21
2023-04-09T00:23:13.038Z,18.22
2023-04-09T00:25:40.946Z,18.22
2023-04-09T00:28:09.028Z,18.19
2023-04-09T00:30:36.927Z,18.18
2023-04-09T00:33:04.863Z,18.17
2023-04-09T00:35:32.741Z,18.18
2023-04-09T00:38:00.823Z,18.18
2023-04-09T00:40:28.721Z,18.17
2023-04-09T00:42:57.235Z,18.17
2023-04-09T00:45:25.311Z,18.18
2023-04-09T00:47:53.221Z,18.13
2023-04-09T00:50:21.185Z,18.14
2023-04-09T00:52:49.225Z,18.17
2023-04-09T00:55:17.051Z,18.17
2023-04-09T00:57:44.910Z,18.17
2023-04-09T01:00:13.237Z,18.18
2023-04-09T01:02:44.375Z,18.20
2023-04-09T01:05:12.571Z,18.19
2023-04-09T01:07:40.896Z,18.18
2023-04-09T01:10:10.749Z,18.22
2023-04-09T01:12:38.769Z,18.17
2023-04-09T01:15:06.556Z,18.14
2023-04-09T01:17:34.389Z,18.13
2023-04-09T01:20:02.212Z,18.11
2023-04-09T01:22:30.083Z,18.12
2023-04-09T01:24:57.906Z,18.14
2023-04-09T01:27:25.667Z,18.14
2023-04-09T01:29:53.548Z,18.13
2023-04-09T01:32:21.376Z,18.07
2023-04-09T01:34:49.214Z,18.05
2023-04-09T01:37:17.225Z,18.04
2023-04-09T01:39:45.132Z,18.05
2023-04-09T01:42:12.934Z,18.03
2023-04-09T01:44:41.058Z,18.00
2023-04-09T01:47:09.066Z,18.00
2023-04-09T01:49:40.125Z,17.99
2023-04-09T01:52:07.969Z,17.97
2023-04-09T01:54:35.981Z,17.97
2023-04-09T01:57:03.812Z,17.93
2023-04-09T01:59:32.007Z,17.94
2023-04-09T02:01:59.869Z,17.95
2023-04-09T02:04:27.865Z,17.93
2023-04-09T02:06:56.136Z,17.91
2023-04-09T02:09:23.879Z,17.94
2023-04-09T02:11:51.736Z,17.91
2023-04-09T02:14:19.554Z,17.90
2023-04-09T02:16:47.369Z,17.89
2023-04-09T02:19:15.933Z,17.86
2023-04-09T02:21:44.369Z,17.85
2023-04-09T02:24:12.210Z,17.86
2023-04-09T02:26:40.117Z,17.89
2023-04-09T02:29:07.860Z,17.87
2023-04-09T02:31:35.886Z,17.88
2023-04-09T02:34:03.711Z,17.88
2023-04-09T02:36:31.612Z,17.86
2023-04-09T02:38:59.495Z,17.86
2023-04-09T02:41:27.386Z,17.89
2023-04-09T02:43:55.179Z,17.87
2023-04-09T02:46:23.038Z,17.86
2023-04-09T02:48:50.982Z,17.89
2023-04-09T02:51:19.172Z,17.89
2023-04-09T02:53:46.945Z,17.91
2023-04-09T02:56:14.732Z,17.88
2023-04-09T02:58:42.869Z,17.87
2023-04-09T03:01:11.129Z,17.85
2023-04-09T03:03:42.263Z,17.86
2023-04-09T03:06:10.191Z,17.89
2023-04-09T03:08:37.975Z,17.86
2023-04-09T03:11:05.875Z,17.86
2023-04-09T03:13:33.732Z,17.86
2023-04-09T03:16:01.561Z,17.91
2023-04-09T03:18:31.555Z,17.86
2023-04-09T03:20:59.422Z,17.85
2023-04-09T03:23:27.369Z,17.88
2023-04-09T03:25:55.193Z,17.85
2023-04-09T03:28:23.046Z,17.86
2023-04-09T03:30:51.096Z,17.84
2023-04-09T03:33:19.704Z,17.74
2023-04-09T03:35:47.543Z,17.69
2023-04-09T03:38:15.430Z,17.67
2023-04-09T03:40:43.323Z,17.70
2023-04-09T03:43:11.130Z,17.69
2023-04-09T03:45:38.925Z,17.76
2023-04-09T03:48:06.763Z,17.76
2023-04-09T03:50:34.579Z,17.79
2023-04-09T03:53:02.381Z,17.80
2023-04-09T03:55:30.240Z,17.77
2023-04-09T03:57:58.116Z,17.80
2023-04-09T04:00:26.088Z,17.79
2023-04-09T04:02:54.203Z,17.75
2023-04-09T04:05:23.337Z,17.76
2023-04-09T04:07:51.198Z,17.77
2023-04-09T04:10:19.289Z,17.79
2023-04-09T04:12:47.155Z,17.76
2023-04-09T04:15:14.989Z,17.72
2023-04-09T04:17:42.833Z,17.69
2023-04-09T04:20:10.748Z,17.72
2023-04-09T04:22:38.707Z,17.71
2023-04-09T04:25:06.501Z,17.71
2023-04-09T04:27:34.298Z,17.74
2023-04-09T04:30:02.262Z,17.74
2023-04-09T04:32:30.107Z,17.61
2023-04-09T04:34:57.916Z,17.74
2023-04-09T04:37:25.921Z,17.92
2023-04-09T04:39:53.731Z,18.15
2023-04-09T04:42:21.628Z,18.27
2023-04-09T04:44:49.405Z,18.35
2023-04-09T04:47:17.219Z,18.40
2023-04-09T04:49:45.005Z,18.43
2023-04-09T04:52:12.814Z,18.46
2023-04-09T04:54:40.699Z,18.51
2023-04-09T04:57:08.534Z,18.56
2023-04-09T04:59:36.273Z,18.56
2023-04-09T05:02:04.548Z,18.56
2023-04-09T05:04:32.457Z,18.52
2023-04-09T05:07:00.225Z,18.48
2023-04-09T05:09:28.262Z,18.50
2023-04-09T05:11:57.060Z,18.76
2023-04-09T05:14:25.338Z,19.06
2023-04-09T05:16:53.392Z,19.37
2023-04-09T05:19:21.269Z,19.62
2023-04-09T05:21:49.077Z,19.92
2023-04-09T05:24:17.154Z,20.10
2023-04-09T05:26:45.074Z,20.29
2023-04-09T05:29:12.813Z,20.46
2023-04-09T05:31:43.175Z,20.61
2023-04-09T05:34:11.278Z,20.71
2023-04-09T05:36:39.033Z,20.74
2023-04-09T05:39:06.829Z,20.74
2023-04-09T05:41:37.285Z,20.73
2023-04-09T05:44:05.155Z,20.67
2023-04-09T05:46:33.041Z,20.62
2023-04-09T05:49:00.845Z,20.54
2023-04-09T05:51:28.769Z,20.50
2023-04-09T05:53:56.566Z,20.42
2023-04-09T05:56:24.577Z,20.36
2023-04-09T05:58:52.391Z,20.32
2023-04-09T06:01:20.177Z,20.27
2023-04-09T06:03:48.126Z,20.24
2023-04-09T06:06:16.170Z,20.23
2023-04-09T06:08:45.016Z,20.24
2023-04-09T06:11:12.806Z,20.24
2023-04-09T06:13:40.578Z,20.24
2023-04-09T06:16:08.662Z,20.23
2023-04-09T06:18:36.475Z,20.21
2023-04-09T06:21:04.440Z,20.18
2023-04-09T06:23:32.513Z,20.13
2023-04-09T06:26:00.417Z,20.10
2023-04-09T06:28:28.403Z,20.06
2023-04-09T06:30:56.290Z,20.02
2023-04-09T06:33:24.114Z,20.00
2023-04-09T06:35:51.947Z,19.98
2023-04-09T06:38:19.764Z,19.98
2023-04-09T06:40:47.824Z,20.06
2023-04-09T06:43:15.650Z,20.24
2023-04-09T06:45:43.470Z,20.29
2023-04-09T06:48:11.273Z,20.27
2023-04-09T06:50:39.208Z,20.22
2023-04-09T06:53:06.973Z,20.20
2023-04-09T06:55:34.842Z,20.12
2023-04-09T06:58:03.429Z,20.08
2023-04-09T07:00:31.376Z,20.06
2023-04-09T07:02:59.199Z,19.94
2023-04-09T07:05:27.275Z,19.87
2023-04-09T07:07:55.058Z,19.86
2023-04-09T07:10:22.859Z,19.85
2023-04-09T07:12:50.673Z,19.89
2023-04-09T07:15:18.633Z,19.93
2023-04-09T07:17:46.504Z,19.96
2023-04-09T07:20:14.694Z,19.96
2023-04-09T07:22:42.802Z,19.91
2023-04-09T07:25:10.935Z,19.95
2023-04-09T07:27:38.696Z,19.99
2023-04-09T07:30:06.483Z,20.09
2023-04-09T07:32:34.429Z,20.10
2023-04-09T07:35:02.505Z,20.07
2023-04-09T07:37:30.633Z,20.00
2023-04-09T07:39:58.430Z,20.04
2023-04-09T07:42:27.350Z,20.06
2023-04-09T07:44:55.268Z,20.07
2023-04-09T07:47:23.271Z,20.09
2023-04-09T07:49:51.637Z,20.10
2023-04-09T07:52:20.216Z,20.07
2023-04-09T07:54:48.038Z,20.01
2023-04-09T07:57:15.932Z,19.99
2023-04-09T07:59:43.705Z,19.97
2023-04-09T08:02:14.357Z,20.10
2023-04-09T08:04:43.062Z,20.12
2023-04-09T08:07:11.545Z,20.09
2023-04-09T08:09:39.433Z,20.07
2023-04-09T08:12:07.213Z,20.04
2023-04-09T08:14:35.059Z,20.02
2023-04-09T08:17:03.377Z,20.00
2023-04-09T08:19:31.361Z,19.95
2023-04-09T08:21:59.217Z,19.92
2023-04-09T08:24:27.049Z,19.89
2023-04-09T08:26:54.875Z,19.86
2023-04-09T08:29:22.648Z,19.86
2023-04-09T08:31:50.744Z,19.81
2023-04-09T08:34:21.162Z,19.79
2023-04-09T08:36:49.919Z,19.77
2023-04-09T08:39:18.981Z,19.76
2023-04-09T08:41:47.627Z,19.76
2023-04-09T08:44:15.594Z,19.76
2023-04-09T08:46:43.417Z,19.74
2023-04-09T08:49:11.523Z,19.69
2023-04-09T08:51:40.405Z,19.67
2023-04-09T08:54:08.353Z,19.68
2023-04-09T08:56:36.431Z,19.68
2023-04-09T08:59:04.360Z,19.71
2023-04-09T09:01:32.560Z,19.72
2023-04-09T09:04:00.736Z,19.71
2023-04-09T09:06:30.134Z,19.71
2023-04-09T09:08:57.961Z,19.72
2023-04-09T09:11:26.045Z,19.74
2023-04-09T09:13:53.830Z,19.75
2023-04-09T09:16:21.755Z,19.77
2023-04-09T09:18:49.960Z,19.78
2023-04-09T09:21:19.494Z,19.76
2023-04-09T09:23:48.517Z,19.75
2023-04-09T09:26:16.577Z,19.75
2023-04-09T09:28:44.413Z,19.74
2023-04-09T09:31:12.625Z,19.75
2023-04-09T09:33:40.630Z,19.74
2023-04-09T09:36:09.596Z,19.74
2023-04-09T09:38:37.429Z,19.75
2023-04-09T09:41:05.461Z,19.75
2023-04-09T09:43:33.222Z,19.75
2023-04-09T09:46:01.052Z,19.77
2023-04-09T09:48:28.873Z,19.76
2023-04-09T09:50:56.891Z,19.74
2023-04-09T09:53:25.219Z,19.73
2023-04-09T09:55:53.122Z,19.70
2023-04-09T09:58:20.912Z,19.67
2023-04-09T10:00:49.006Z,19.66
2023-04-09T10:03:17.165Z,19.66
2023-04-09T10:05:45.974Z,19.69
2023-04-09T10:08:13.882Z,19.71
2023-04-09T10:10:42.425Z,19.73
2023-04-09T10:13:10.270Z,19.71
2023-04-09T10:15:38.439Z,19.72
2023-04-09T10:18:06.413Z,19.71
2023-04-09T10:20:34.773Z,19.70
2023-04-09T10:23:02.534Z,19.66
2023-04-09T10:25:30.371Z,19.67
2023-04-09T10:27:58.156Z,19.66
2023-04-09T10:30:25.969Z,19.65
2023-04-09T10:32:54.172Z,19.66
2023-04-09T10:35:22.044Z,19.64
2023-04-09T10:37:50.688Z,19.67
2023-04-09T10:40:18.618Z,19.69
2023-04-09T10:42:47.880Z,19.74
2023-04-09T10:45:16.926Z,19.73
2023-04-09T10:47:46.340Z,19.72
2023-04-09T10:50:14.542Z,19.71
2023-04-09T10:52:42.573Z,19.69
2023-04-09T10:55:10.369Z,19.70
2023-04-09T10:57:38.131Z,19.69
2023-04-09T11:00:05.946Z,19.69
2023-04-09T11:02:33.905Z,19.68
2023-04-09T11:05:02.058Z,19.66
2023-04-09T11:07:30.232Z,19.70
2023-04-09T11:09:58.054Z,19.71
2023-04-09T11:12:26.087Z,19.70
2023-04-09T11:14:53.992Z,19.66
2023-04-09T11:17:21.901Z,19.64
2023-04-09T11:19:49.862Z,19.63
2023-04-09T11:22:17.807Z,19.62
2023-04-09T11:24:46.619Z,19.63
2023-04-09T11:27:19.600Z,19.65
2023-04-09T11:29:47.464Z,19.63
2023-04-09T11:32:15.723Z,19.62
2023-04-09T11:34:43.577Z,19.59
2023-04-09T11:37:12.248Z,19.58
2023-04-09T11:39:42.979Z,19.61
2023-04-09T11:42:10.909Z,19.60
2023-04-09T11:44:38.772Z,19.62
2023-04-09T11:47:07.489Z,19.67
2023-04-09T11:49:35.349Z,19.70
2023-04-09T11:52:04.138Z,19.72
2023-04-09T11:54:31.908Z,19.73
2023-04-09T11:56:59.707Z,19.76
2023-04-09T11:59:27.512Z,19.75
2023-04-09T12:01:55.510Z,19.77
2023-04-09T12:04:23.569Z,19.78
2023-04-09T12:06:52.002Z,19.79
2023-04-09T12:09:19.796Z,19.79
2023-04-09T12:11:47.581Z,19.80
2023-04-09T12:14:16.276Z,19.80
2023-04-09T12:16:44.886Z,19.78
2023-04-09T12:19:12.806Z,19.77
2023-04-09T12:21:40.601Z,19.86
2023-04-09T12:24:08.369Z,20.02
2023-04-09T12:26:36.178Z,20.29
2023-04-09T12:29:03.992Z,20.62
2023-04-09T12:31:31.803Z,20.89
2023-04-09T12:33:59.647Z,21.11
2023-04-09T12:36:27.668Z,21.29
2023-04-09T12:38:55.833Z,21.33
2023-04-09T12:41:23.635Z,21.35
2023-04-09T12:43:51.658Z,21.42
2023-04-09T12:46:19.612Z,21.41
2023-04-09T12:48:47.493Z,21.41
2023-04-09T12:51:15.332Z,21.42
2023-04-09T12:53:44.661Z,21.44
2023-04-09T12:56:12.471Z,21.44
2023-04-09T12:58:40.463Z,21.43
2023-04-09T13:01:08.295Z,21.40
2023-04-09T13:03:36.672Z,21.37
2023-04-09T13:06:04.605Z,21.36
2023-04-09T13:08:32.404Z,21.33
2023-04-09T13:11:00.838Z,21.32
2023-04-09T13:13:28.709Z,21.31
2023-04-09T13:15:58.980Z,21.29
2023-04-09T13:18:26.753Z,21.25
2023-04-09T13:20:54.557Z,21.19
2023-04-09T13:23:22.345Z,21.14
2023-04-09T13:25:50.129Z,21.10
2023-04-09T13:28:17.995Z,21.05
2023-04-09T13:30:45.778Z,21.01
2023-04-09T13:33:13.573Z,20.97
2023-04-09T13:35:41.518Z,20.92
2023-04-09T13:38:12.598Z,20.90
2023-04-09T13:40:40.730Z,20.86
2023-04-09T13:43:08.493Z,20.80
2023-04-09T13:45:39.461Z,20.80
2023-04-09T13:48:07.385Z,20.77
2023-04-09T13:50:35.353Z,20.72
2023-04-09T13:53:05.340Z,20.69
2023-04-09T13:55:33.209Z,20.64
2023-04-09T13:58:00.995Z,20.63
2023-04-09T14:00:29.079Z,20.56
2023-04-09T14:02:57.023Z,20.63
2023-04-09T14:05:25.303Z,20.86
2023-04-09T14:07:53.098Z,20.92
2023-04-09T14:10:20.881Z,20.84
2023-04-09T14:12:48.807Z,20.79
2023-04-09T14:15:16.890Z,20.71
2023-04-09T14:17:44.707Z,20.71
2023-04-09T14:20:12.650Z,20.68
2023-04-09T14:22:41.512Z,20.58
2023-04-09T14:25:09.324Z,20.56
2023-04-09T14:27:40.116Z,20.63
2023-04-09T14:30:07.905Z,20.76
2023-04-09T14:32:36.387Z,20.90
2023-04-09T14:35:04.278Z,21.05
2023-04-09T14:37:32.297Z,21.14
2023-04-09T14:40:00.068Z,21.16
2023-04-09T14:42:28.106Z,21.14
2023-04-09T14:44:56.124Z,21.16
2023-04-09T14:47:23.997Z,21.16
2023-04-09T14:49:55.041Z,21.19
2023-04-09T14:52:22.966Z,21.20
2023-04-09T14:54:52.966Z,21.18
2023-04-09T14:57:20.853Z,21.16
2023-04-09T14:59:48.684Z,21.14
2023-04-09T15:02:16.686Z,21.10
2023-04-09T15:04:44.718Z,21.11
2023-04-09T15:07:13.011Z,21.05
2023-04-09T15:09:40.866Z,21.03
2023-04-09T15:12:09.638Z,21.00
2023-04-09T15:14:37.435Z,20.97
2023-04-09T15:17:05.422Z,20.91
2023-04-09T15:19:33.445Z,20.89
2023-04-09T15:22:01.254Z,20.85
2023-04-09T15:24:29.024Z,20.82
2023-04-09T15:26:57.011Z,20.81
2023-04-09T15:29:24.789Z,20.80
2023-04-09T15:31:52.967Z,20.75
2023-04-09T15:34:20.948Z,20.74
2023-04-09T15:36:48.952Z,20.98
2023-04-09T15:39:17.138Z,21.01
2023-04-09T15:41:45.019Z,20.94
2023-04-09T15:44:12.824Z,20.89
2023-04-09T15:46:40.902Z,20.86
2023-04-09T15:49:11.722Z,20.85
2023-04-09T15:51:39.549Z,20.83
2023-04-09T15:54:07.360Z,20.85
2023-04-09T15:56:39.917Z,20.85
2023-04-09T15:59:08.351Z,20.79
2023-04-09T16:01:36.716Z,20.78
2023-04-09T16:04:09.506Z,20.68
2023-04-09T16:06:37.346Z,20.70
2023-04-09T16:09:05.288Z,20.67
2023-04-09T16:11:37.601Z,20.67
2023-04-09T16:14:05.482Z,20.66
2023-04-09T16:16:33.274Z,20.65
2023-04-09T16:19:01.135Z,20.66
2023-04-09T16:21:29.213Z,20.58
2023-04-09T16:23:57.534Z,20.63
2023-04-09T16:26:28.596Z,20.59
2023-04-09T16:28:59.928Z,20.62
2023-04-09T16:31:30.381Z,20.81
2023-04-09T16:33:58.738Z,21.03
2023-04-09T16:36:27.127Z,21.23
2023-04-09T16:38:55.201Z,21.39
2023-04-09T16:41:23.004Z,21.47
2023-04-09T16:43:51.493Z,21.55
2023-04-09T16:46:19.400Z,21.54
2023-04-09T16:48:47.561Z,21.50
2023-04-09T16:51:15.584Z,21.46
2023-04-09T16:53:43.525Z,21.44
2023-04-09T16:56:11.527Z,21.44
2023-04-09T16:58:39.497Z,21.47
2023-04-09T17:01:07.619Z,21.47
2023-04-09T17:03:35.744Z,21.41
2023-04-09T17:06:05.183Z,21.39
2023-04-09T17:08:33.161Z,21.35
2023-04-09T17:11:03.213Z,21.33
2023-04-09T17:13:31.716Z,21.30
2023-04-09T17:15:59.651Z,21.24
2023-04-09T17:18:27.884Z,21.22
2023-04-09T17:20:56.288Z,21.19
2023-04-09T17:23:26.427Z,21.14
2023-04-09T17:28:25.185Z,21.05
2023-04-09T17:30:53.265Z,21.02
2023-04-09T17:33:24.118Z,20.98
2023-04-09T17:35:53.099Z,20.96
2023-04-09T17:38:21.721Z,20.92
2023-04-09T17:40:49.760Z,20.91
2023-04-09T17:43:17.873Z,20.89
2023-04-09T17:45:46.274Z,20.82
2023-04-09T17:48:18.509Z,20.76
2023-04-09T17:50:46.854Z,20.68
2023-04-09T17:53:14.926Z,20.90
2023-04-09T17:55:42.914Z,20.96
2023-04-09T17:58:10.966Z,20.97
2023-04-09T18:00:39.025Z,20.92
2023-04-09T18:03:07.198Z,20.82
2023-04-09T18:05:35.375Z,20.79
2023-04-09T18:08:03.363Z,20.69
2023-04-09T18:10:32.816Z,20.65
2023-04-09T18:13:00.813Z,20.60
2023-04-09T18:15:28.706Z,20.59
2023-04-09T18:17:56.570Z,20.60
2023-04-09T18:20:24.665Z,20.58
2023-04-09T18:22:54.831Z,20.58
2023-04-09T18:25:23.569Z,20.59
2023-04-09T18:27:51.456Z,20.63
2023-04-09T18:30:19.309Z,20.81
2023-04-09T18:32:48.356Z,21.08
2023-04-09T18:35:17.464Z,21.32
2023-04-09T18:37:45.420Z,21.54
2023-04-09T18:40:15.692Z,21.61
2023-04-09T18:42:43.580Z,21.66
2023-04-09T18:45:11.858Z,21.67
2023-04-09T18:47:40.479Z,21.63
2023-04-09T18:50:08.787Z,21.61
2023-04-09T18:52:38.595Z,21.58
2023-04-09T18:55:06.682Z,21.60
2023-04-09T18:57:34.660Z,21.62
2023-04-09T19:00:03.943Z,21.61
2023-04-09T19:02:32.190Z,21.59
2023-04-09T19:05:00.292Z,21.55
2023-04-09T19:07:28.265Z,21.51
2023-04-09T19:09:56.507Z,21.44
2023-04-09T19:12:25.054Z,21.39
2023-04-09T19:14:53.768Z,21.37
2023-04-09T19:17:21.707Z,21.33
2023-04-09T19:19:51.705Z,21.30
2023-04-09T19:22:19.733Z,21.27
2023-04-09T19:24:47.650Z,21.20
2023-04-09T19:27:15.572Z,21.17
2023-04-09T19:29:44.160Z,21.12
2023-04-09T19:32:14.989Z,21.07
2023-04-09T19:34:42.790Z,21.05
2023-04-09T19:37:12.545Z,20.98
2023-04-09T19:39:41.691Z,20.92
2023-04-09T19:42:09.590Z,20.90
2023-04-09T19:44:37.721Z,20.84
2023-04-09T19:47:07.768Z,20.77
2023-04-09T19:49:35.720Z,20.71
2023-04-09T19:52:09.222Z,20.82
2023-04-09T19:54:39.748Z,20.89
2023-04-09T19:57:15.264Z,20.81
2023-04-09T19:59:43.056Z,20.66
2023-04-09T20:02:10.913Z,20.62
2023-04-09T20:04:40.474Z,20.61
2023-04-09T20:07:08.266Z,20.57
2023-04-09T20:09:41.434Z,20.48
2023-04-09T20:12:09.242Z,20.40
2023-04-09T20:14:38.299Z,20.38
2023-04-09T20:17:06.172Z,20.31
2023-04-09T20:19:34.130Z,20.30
2023-04-09T20:22:02.050Z,20.24
2023-04-09T20:24:32.332Z,20.23
2023-04-09T20:27:00.112Z,20.23
2023-04-09T20:29:27.955Z,20.23
2023-04-09T20:31:55.818Z,20.20
2023-04-09T20:34:27.070Z,20.14
2023-04-09T20:36:55.536Z,20.11
2023-04-09T20:39:26.924Z,20.09
2023-04-09T20:41:55.160Z,20.06
2023-04-09T20:44:22.990Z,20.03
2023-04-09T20:46:50.906Z,20.00
2023-04-09T20:49:18.701Z,19.95
2023-04-09T20:51:46.528Z,19.92
2023-04-09T20:54:14.326Z,19.91
2023-04-09T20:56:42.182Z,19.88
2023-04-09T20:59:10.001Z,19.85
2023-04-09T21:01:37.994Z,19.84
2023-04-09T21:04:08.613Z,19.87
2023-04-09T21:06:36.605Z,19.81
2023-04-09T21:09:04.528Z,19.77
2023-04-09T21:11:32.452Z,19.76
2023-04-09T21:14:03.050Z,19.73
2023-04-09T21:16:31.227Z,19.74
2023-04-09T21:19:07.162Z,19.71
2023-04-09T21:21:35.095Z,19.68
2023-04-09T21:24:03.109Z,19.63
2023-04-09T21:26:38.670Z,19.61
2023-04-09T21:29:17.612Z,19.61
2023-04-09T21:31:45.702Z,19.61
2023-04-09T21:34:13.538Z,19.62
2023-04-09T21:36:41.393Z,19.60
2023-04-09T21:39:09.283Z,19.57
2023-04-09T21:41:37.052Z,19.58
2023-04-09T21:44:08.574Z,19.58
2023-04-09T21:46:37.146Z,19.59
2023-04-09T21:49:05.094Z,19.60
2023-04-09T21:51:33.170Z,19.56
2023-04-09T21:54:01.035Z,19.51
2023-04-09T21:56:28.817Z,19.49
2023-04-09T21:58:56.902Z,19.50
2023-04-09T22:01:29.474Z,19.46
2023-04-09T22:03:57.553Z,19.44
2023-04-09T22:06:27.076Z,19.41
2023-04-09T22:08:56.866Z,19.40
2023-04-09T22:11:25.052Z,19.42
2023-04-09T22:13:53.214Z,19.40
2023-04-09T22:16:21.014Z,19.41
2023-04-09T22:18:49.076Z,19.35
2023-04-09T22:21:16.879Z,19.35
2023-04-09T22:23:44.725Z,19.34
2023-04-09T22:26:12.645Z,19.35
2023-04-09T22:28:40.438Z,19.38
2023-04-09T22:31:08.256Z,19.37
2023-04-09T22:33:36.142Z,19.35
2023-04-09T22:36:03.943Z,19.31
2023-04-09T22:38:31.862Z,19.29
2023-04-09T22:40:59.788Z,19.31
2023-04-09T22:43:27.584Z,19.27
2023-04-09T22:45:56.028Z,19.27
2023-04-09T22:48:24.119Z,19.28
2023-04-09T22:50:54.294Z,19.25
2023-04-09T22:53:24.791Z,19.23
2023-04-09T22:55:52.603Z,19.21
2023-04-09T22:58:20.546Z,19.21
2023-04-09T23:00:48.348Z,19.21
2023-04-09T23:03:16.913Z,19.20
2023-04-09T23:05:44.799Z,19.23
2023-04-09T23:08:12.640Z,19.20
2023-04-09T23:10:40.485Z,19.19
2023-04-09T23:13:10.252Z,19.19
2023-04-09T23:15:38.071Z,19.19
2023-04-09T23:18:05.887Z,19.17
2023-04-09T23:20:33.765Z,19.16
2023-04-09T23:23:01.683Z,19.12
2023-04-09T23:25:29.462Z,19.12
2023-04-09T23:27:57.354Z,19.08
2023-04-09T23:30:25.173Z,19.07
2023-04-09T23:32:55.607Z,19.09
2023-04-09T23:35:25.427Z,19.09
2023-04-09T23:37:53.341Z,19.04
2023-04-09T23:40:21.491Z,19.02
2023-04-09T23:42:50.285Z,19.03
2023-04-09T23:45:18.106Z,19.01
2023-04-09T23:47:46.180Z,19.02
2023-04-09T23:50:14.113Z,18.98
2023-04-09T23:52:41.975Z,18.97
2023-04-09T23:55:10.791Z,18.98
2023-04-09T23:57:39.788Z,18.98
